sensor_id;sensor_type;location;lat;lon;timestamp;pressure;altitude;pressure_sealevel;temperature;humidity
25350;BME280;13302;48.796;11.978;2022-11-20T00:00:29;96215.19;;;6.47;36.44
25350;BME280;13302;48.796;11.978;2022-11-20T00:03:16;96230.97;;;6.50;36.13
25350;BME280;13302;48.796;11.978;2022-11-20T00:06:06;96221.59;;;6.51;36.22
25350;BME280;13302;48.796;11.978;2022-11-20T00:08:55;96229.03;;;6.50;36.13
25350;BME280;13302;48.796;11.978;2022-11-20T00:11:43;96225.47;;;6.50;36.13
25350;BME280;13302;48.796;11.978;2022-11-20T00:14:30;96228.22;;;6.50;36.28
25350;BME280;13302;48.796;11.978;2022-11-20T00:17:17;96228.53;;;6.48;36.18
25350;BME280;13302;48.796;11.978;2022-11-20T00:20:04;96235.19;;;6.47;36.22
25350;BME280;13302;48.796;11.978;2022-11-20T00:22:51;96242.97;;;6.45;36.31
25350;BME280;13302;48.796;11.978;2022-11-20T00:25:39;96240.22;;;6.45;36.30
25350;BME280;13302;48.796;11.978;2022-11-20T00:28:26;96235.53;;;6.45;36.30
25350;BME280;13302;48.796;11.978;2022-11-20T00:31:14;96236.78;;;6.48;36.40
25350;BME280;13302;48.796;11.978;2022-11-20T00:34:02;96234.16;;;6.52;36.26
25350;BME280;13302;48.796;11.978;2022-11-20T00:36:49;96232.69;;;6.54;36.08
25350;BME280;13302;48.796;11.978;2022-11-20T00:39:36;96238.63;;;6.56;36.18
25350;BME280;13302;48.796;11.978;2022-11-20T00:42:23;96239.09;;;6.58;36.15
25350;BME280;13302;48.796;11.978;2022-11-20T00:45:10;96240.72;;;6.59;36.08
25350;BME280;13302;48.796;11.978;2022-11-20T00:47:56;96243.78;;;6.58;35.98
25350;BME280;13302;48.796;11.978;2022-11-20T00:50:43;96243.31;;;6.56;36.24
25350;BME280;13302;48.796;11.978;2022-11-20T00:53:31;96243.31;;;6.56;36.13
25350;BME280;13302;48.796;11.978;2022-11-20T00:56:19;96236.25;;;6.55;36.23
25350;BME280;13302;48.796;11.978;2022-11-20T00:59:06;96244.47;;;6.55;36.22
25350;BME280;13302;48.796;11.978;2022-11-20T01:01:53;96246.88;;;6.56;36.16
25350;BME280;13302;48.796;11.978;2022-11-20T01:04:40;96247.34;;;6.58;36.32
25350;BME280;13302;48.796;11.978;2022-11-20T01:07:27;96250.91;;;6.59;36.27
25350;BME280;13302;48.796;11.978;2022-11-20T01:10:14;96249.41;;;6.61;36.13
25350;BME280;13302;48.796;11.978;2022-11-20T01:13:01;96249.41;;;6.61;36.14
25350;BME280;13302;48.796;11.978;2022-11-20T01:16:41;96256.84;;;6.61;36.21
25350;BME280;13302;48.796;11.978;2022-11-20T01:19:29;96247.47;;;6.62;36.27
25350;BME280;13302;48.796;11.978;2022-11-20T01:22:16;96251.81;;;6.63;36.36
25350;BME280;13302;48.796;11.978;2022-11-20T01:25:04;96251.47;;;6.64;36.26
25350;BME280;13302;48.796;11.978;2022-11-20T01:27:52;96255.50;;;6.67;36.12
25350;BME280;13302;48.796;11.978;2022-11-20T01:30:41;96252.38;;;6.68;36.05
25350;BME280;13302;48.796;11.978;2022-11-20T01:33:29;96252.06;;;6.70;36.18
25350;BME280;13302;48.796;11.978;2022-11-20T01:36:19;96253.19;;;6.69;36.32
25350;BME280;13302;48.796;11.978;2022-11-20T01:39:12;96254.81;;;6.70;36.23
25350;BME280;13302;48.796;11.978;2022-11-20T01:42:00;96263.53;;;6.72;36.32
25350;BME280;13302;48.796;11.978;2022-11-20T01:45:42;96258.69;;;6.69;36.25
25350;BME280;13302;48.796;11.978;2022-11-20T01:48:45;96263.72;;;6.67;36.47
25350;BME280;13302;48.796;11.978;2022-11-20T01:51:44;96264.19;;;6.69;36.16
25350;BME280;13302;48.796;11.978;2022-11-20T01:55:00;96264.97;;;6.69;36.40
25350;BME280;13302;48.796;11.978;2022-11-20T01:57:49;96265.47;;;6.71;36.20
25350;BME280;13302;48.796;11.978;2022-11-20T02:00:37;96263.53;;;6.72;36.17
25350;BME280;13302;48.796;11.978;2022-11-20T02:03:26;96256.06;;;6.72;36.37
25350;BME280;13302;48.796;11.978;2022-11-20T02:06:24;96250.56;;;6.72;36.20
25350;BME280;13302;48.796;11.978;2022-11-20T02:09:14;96250.56;;;6.72;36.30
25350;BME280;13302;48.796;11.978;2022-11-20T02:12:02;96252.16;;;6.73;36.37
25350;BME280;13302;48.796;11.978;2022-11-20T02:14:50;96258.47;;;6.74;36.22
25350;BME280;13302;48.796;11.978;2022-11-20T02:17:38;96245.88;;;6.73;36.51
25350;BME280;13302;48.796;11.978;2022-11-20T02:20:26;96249.44;;;6.73;36.18
25350;BME280;13302;48.796;11.978;2022-11-20T02:26:22;96252.16;;;6.73;36.44
25350;BME280;13302;48.796;11.978;2022-11-20T02:29:10;96249.91;;;6.75;36.28
25350;BME280;13302;48.796;11.978;2022-11-20T02:31:58;96246.00;;;6.76;36.49
25350;BME280;13302;48.796;11.978;2022-11-20T02:34:47;96246.00;;;6.76;36.49
25350;BME280;13302;48.796;11.978;2022-11-20T02:37:37;96246.78;;;6.77;36.62
25350;BME280;13302;48.796;11.978;2022-11-20T02:40:25;96243.72;;;6.78;36.61
25350;BME280;13302;48.796;11.978;2022-11-20T02:43:12;96237.91;;;6.80;36.60
25350;BME280;13302;48.796;11.978;2022-11-20T02:45:59;96243.03;;;6.81;36.45
25350;BME280;13302;48.796;11.978;2022-11-20T02:48:46;96236.41;;;6.82;36.42
25350;BME280;13302;48.796;11.978;2022-11-20T02:51:33;96239.94;;;6.83;36.57
25350;BME280;13302;48.796;11.978;2022-11-20T02:54:20;96240.41;;;6.85;36.66
25350;BME280;13302;48.796;11.978;2022-11-20T02:57:07;96242.00;;;6.86;36.71
25350;BME280;13302;48.796;11.978;2022-11-20T02:59:54;96239.38;;;6.89;36.55
25350;BME280;13302;48.796;11.978;2022-11-20T03:02:41;96234.69;;;6.90;36.61
25350;BME280;13302;48.796;11.978;2022-11-20T03:05:28;96226.91;;;6.92;36.62
25350;BME280;13302;48.796;11.978;2022-11-20T03:08:15;96234.78;;;6.93;36.68
25350;BME280;13302;48.796;11.978;2022-11-20T03:11:04;96231.72;;;6.95;36.65
25350;BME280;13302;48.796;11.978;2022-11-20T03:13:52;96229.41;;;6.97;36.60
25350;BME280;13302;48.796;11.978;2022-11-20T03:16:40;96228.28;;;6.98;36.79
25350;BME280;13302;48.796;11.978;2022-11-20T03:19:27;96233.44;;;7.00;36.82
25350;BME280;13302;48.796;11.978;2022-11-20T03:22:14;96223.69;;;7.02;36.85
25350;BME280;13302;48.796;11.978;2022-11-20T03:25:01;96227.72;;;7.05;36.71
25350;BME280;13302;48.796;11.978;2022-11-20T03:27:48;96228.16;;;7.07;36.76
25350;BME280;13302;48.796;11.978;2022-11-20T03:30:35;96227.84;;;7.08;36.85
25350;BME280;13302;48.796;11.978;2022-11-20T03:33:22;96234.56;;;7.11;36.70
25350;BME280;13302;48.796;11.978;2022-11-20T03:36:11;96229.88;;;7.11;36.74
25350;BME280;13302;48.796;11.978;2022-11-20T03:38:58;96233.88;;;7.14;36.89
25350;BME280;13302;48.796;11.978;2022-11-20T03:41:45;96237.09;;;7.16;36.96
25350;BME280;13302;48.796;11.978;2022-11-20T03:44:32;96224.50;;;7.15;36.89
25350;BME280;13302;48.796;11.978;2022-11-20T03:47:19;96225.31;;;7.15;36.83
25350;BME280;13302;48.796;11.978;2022-11-20T03:50:07;96225.31;;;7.15;36.62
25350;BME280;13302;48.796;11.978;2022-11-20T03:52:55;96220.63;;;7.16;36.58
25350;BME280;13302;48.796;11.978;2022-11-20T03:55:42;96216.25;;;7.15;36.76
25350;BME280;13302;48.796;11.978;2022-11-20T03:58:29;96217.38;;;7.14;36.85
25350;BME280;13302;48.796;11.978;2022-11-20T04:01:19;96215.81;;;7.13;36.82
25350;BME280;13302;48.796;11.978;2022-11-20T04:04:06;96215.34;;;7.11;37.20
25350;BME280;13302;48.796;11.978;2022-11-20T04:06:53;96217.28;;;7.10;36.93
25350;BME280;13302;48.796;11.978;2022-11-20T04:09:40;96218.09;;;7.11;36.94
25350;BME280;13302;48.796;11.978;2022-11-20T04:12:31;96214.53;;;7.10;37.00
25350;BME280;13302;48.796;11.978;2022-11-20T04:15:18;96222.88;;;7.14;36.91
25350;BME280;13302;48.796;11.978;2022-11-20T04:18:05;96210.75;;;7.15;36.84
25350;BME280;13302;48.796;11.978;2022-11-20T04:20:53;96215.13;;;7.16;36.85
25350;BME280;13302;48.796;11.978;2022-11-20T04:23:39;96212.38;;;7.16;36.85
25350;BME280;13302;48.796;11.978;2022-11-20T04:26:29;96208.81;;;7.15;36.89
25350;BME280;13302;48.796;11.978;2022-11-20T04:29:16;96211.56;;;7.15;36.98
25350;BME280;13302;48.796;11.978;2022-11-20T04:32:03;96218.66;;;7.16;36.90
25350;BME280;13302;48.796;11.978;2022-11-20T04:34:50;96223.69;;;7.14;36.86
25350;BME280;13302;48.796;11.978;2022-11-20T04:37:37;96217.38;;;7.14;37.18
25350;BME280;13302;48.796;11.978;2022-11-20T04:40:24;96227.13;;;7.11;37.36
25350;BME280;13302;48.796;11.978;2022-11-20T04:43:11;96210.97;;;7.10;37.18
25350;BME280;13302;48.796;11.978;2022-11-20T04:45:59;96214.09;;;7.08;37.12
25350;BME280;13302;48.796;11.978;2022-11-20T04:48:47;96217.50;;;7.05;37.18
25350;BME280;13302;48.796;11.978;2022-11-20T04:51:34;96218.19;;;7.02;37.11
25350;BME280;13302;48.796;11.978;2022-11-20T04:54:22;96215.81;;;7.01;37.17
25350;BME280;13302;48.796;11.978;2022-11-20T04:57:08;96218.09;;;6.99;37.17
25350;BME280;13302;48.796;11.978;2022-11-20T05:00:00;96211.47;;;7.00;37.13
25350;BME280;13302;48.796;11.978;2022-11-20T05:02:47;96213.84;;;7.01;36.96
25350;BME280;13302;48.796;11.978;2022-11-20T05:05:34;96217.41;;;7.02;37.17
25350;BME280;13302;48.796;11.978;2022-11-20T05:08:21;96218.19;;;7.02;36.99
25350;BME280;13302;48.796;11.978;2022-11-20T05:11:11;96229.19;;;7.02;36.99
25350;BME280;13302;48.796;11.978;2022-11-20T05:13:59;96227.25;;;7.03;37.17
25350;BME280;13302;48.796;11.978;2022-11-20T05:16:46;96224.50;;;7.03;37.19
25350;BME280;13302;48.796;11.978;2022-11-20T05:19:33;96228.06;;;7.03;37.03
25350;BME280;13302;48.796;11.978;2022-11-20T05:22:20;96224.16;;;7.04;37.28
25350;BME280;13302;48.796;11.978;2022-11-20T05:25:07;96218.66;;;7.04;37.15
25350;BME280;13302;48.796;11.978;2022-11-20T05:27:54;96233.22;;;7.05;37.08
25350;BME280;13302;48.796;11.978;2022-11-20T05:30:41;96230.47;;;7.05;37.10
25350;BME280;13302;48.796;11.978;2022-11-20T05:33:28;96232.84;;;7.06;37.03
25350;BME280;13302;48.796;11.978;2022-11-20T05:36:15;96233.66;;;7.07;37.11
25350;BME280;13302;48.796;11.978;2022-11-20T05:39:02;96233.31;;;7.08;37.13
25350;BME280;13302;48.796;11.978;2022-11-20T05:41:49;96224.72;;;7.10;37.21
25350;BME280;13302;48.796;11.978;2022-11-20T05:44:57;96224.38;;;7.11;37.11
25350;BME280;13302;48.796;11.978;2022-11-20T05:47:45;96218.19;;;7.14;37.16
25350;BME280;13302;48.796;11.978;2022-11-20T05:50:31;96227.72;;;7.17;37.11
25350;BME280;13302;48.796;11.978;2022-11-20T05:53:19;96224.97;;;7.17;37.07
25350;BME280;13302;48.796;11.978;2022-11-20T05:56:20;96220.63;;;7.16;37.19
25350;BME280;13302;48.796;11.978;2022-11-20T05:59:08;96221.41;;;7.16;37.15
25350;BME280;13302;48.796;11.978;2022-11-20T06:01:55;96225.75;;;7.17;37.42
25350;BME280;13302;48.796;11.978;2022-11-20T06:04:42;96222.22;;;7.17;37.38
25350;BME280;13302;48.796;11.978;2022-11-20T06:07:28;96226.56;;;7.18;37.43
25350;BME280;13302;48.796;11.978;2022-11-20T06:10:15;96223.81;;;7.18;37.29
25350;BME280;13302;48.796;11.978;2022-11-20T06:13:02;96228.16;;;7.19;37.37
25350;BME280;13302;48.796;11.978;2022-11-20T06:15:53;96225.41;;;7.19;37.65
25350;BME280;13302;48.796;11.978;2022-11-20T06:18:40;96225.53;;;7.22;37.89
25350;BME280;13302;48.796;11.978;2022-11-20T06:21:27;96225.63;;;7.26;37.81
25350;BME280;13302;48.796;11.978;2022-11-20T06:24:14;96228.16;;;7.31;37.90
25350;BME280;13302;48.796;11.978;2022-11-20T06:27:01;96225.19;;;7.36;37.83
25350;BME280;13302;48.796;11.978;2022-11-20T06:29:48;96231.28;;;7.42;37.98
25350;BME280;13302;48.796;11.978;2022-11-20T06:32:35;96224.38;;;7.48;38.06
25350;BME280;13302;48.796;11.978;2022-11-20T06:35:22;96226.09;;;7.52;37.92
25350;BME280;13302;48.796;11.978;2022-11-20T06:38:09;96227.81;;;7.57;37.98
25350;BME280;13302;48.796;11.978;2022-11-20T06:40:56;96236.97;;;7.61;37.97
25350;BME280;13302;48.796;11.978;2022-11-20T06:43:43;96230.75;;;7.64;38.18
25350;BME280;13302;48.796;11.978;2022-11-20T06:46:30;96234.44;;;7.68;38.02
25350;BME280;13302;48.796;11.978;2022-11-20T06:49:17;96239.22;;;7.71;38.03
25350;BME280;13302;48.796;11.978;2022-11-20T06:52:05;96248.03;;;7.76;38.08
25350;BME280;13302;48.796;11.978;2022-11-20T06:54:52;96250.56;;;7.81;38.15
25350;BME280;13302;48.796;11.978;2022-11-20T06:57:39;96261.34;;;7.87;38.30
25350;BME280;13302;48.796;11.978;2022-11-20T07:00:26;96256.75;;;7.91;38.34
25350;BME280;13302;48.796;11.978;2022-11-20T07:03:13;96257.66;;;7.95;38.06
25350;BME280;13302;48.796;11.978;2022-11-20T07:06:01;96250.28;;;7.99;38.19
25350;BME280;13302;48.796;11.978;2022-11-20T07:08:50;96253.47;;;8.01;38.16
25350;BME280;13302;48.796;11.978;2022-11-20T07:11:39;96246.94;;;8.05;38.11
25350;BME280;13302;48.796;11.978;2022-11-20T07:14:26;96256.91;;;8.10;38.28
25350;BME280;13302;48.796;11.978;2022-11-20T07:17:13;96258.13;;;8.12;38.03
25350;BME280;13302;48.796;11.978;2022-11-20T07:20:00;96250.34;;;8.14;38.16
25350;BME280;13302;48.796;11.978;2022-11-20T07:22:53;96244.47;;;8.16;38.21
25350;BME280;13302;48.796;11.978;2022-11-20T07:25:40;96245.38;;;8.20;37.90
25350;BME280;13302;48.796;11.978;2022-11-20T07:28:27;96250.88;;;8.20;37.94
25350;BME280;13302;48.796;11.978;2022-11-20T07:31:14;96251.34;;;8.22;37.92
25350;BME280;13302;48.796;11.978;2022-11-20T07:34:05;96253.75;;;8.23;37.95
25350;BME280;13302;48.796;11.978;2022-11-20T07:36:53;96249.81;;;8.24;37.95
25350;BME280;13302;48.796;11.978;2022-11-20T07:39:40;96259.34;;;8.27;38.18
25350;BME280;13302;48.796;11.978;2022-11-20T07:42:28;96246.75;;;8.26;38.05
25350;BME280;13302;48.796;11.978;2022-11-20T07:45:16;96253.84;;;8.27;38.05
25350;BME280;13302;48.796;11.978;2022-11-20T07:48:03;96259.00;;;8.28;38.00
25350;BME280;13302;48.796;11.978;2022-11-20T07:50:56;96256.25;;;8.28;38.19
25350;BME280;13302;48.796;11.978;2022-11-20T07:53:44;96257.41;;;8.27;38.32
25350;BME280;13302;48.796;11.978;2022-11-20T07:56:30;96249.97;;;8.28;38.22
25350;BME280;13302;48.796;11.978;2022-11-20T07:59:17;96251.91;;;8.27;38.18
25350;BME280;13302;48.796;11.978;2022-11-20T08:02:05;96254.66;;;8.27;38.04
25350;BME280;13302;48.796;11.978;2022-11-20T08:04:52;96259.00;;;8.28;38.12
25350;BME280;13302;48.796;11.978;2022-11-20T08:07:41;96255.09;;;8.29;38.17
25350;BME280;13302;48.796;11.978;2022-11-20T08:10:28;96255.47;;;8.28;38.10
25350;BME280;13302;48.796;11.978;2022-11-20T08:13:15;96267.25;;;8.28;38.11
25350;BME280;13302;48.796;11.978;2022-11-20T08:16:21;96262.44;;;8.25;38.04
25350;BME280;13302;48.796;11.978;2022-11-20T08:19:08;96264.06;;;8.26;38.33
25350;BME280;13302;48.796;11.978;2022-11-20T08:21:55;96260.16;;;8.27;38.36
25350;BME280;13302;48.796;11.978;2022-11-20T08:24:43;96257.84;;;8.29;38.36
25350;BME280;13302;48.796;11.978;2022-11-20T08:27:31;96259.13;;;8.32;38.21
25350;BME280;13302;48.796;11.978;2022-11-20T08:30:19;96257.59;;;8.35;38.34
25350;BME280;13302;48.796;11.978;2022-11-20T08:33:08;96258.03;;;8.37;38.19
25350;BME280;13302;48.796;11.978;2022-11-20T08:36:03;96261.16;;;8.35;38.35
25350;BME280;13302;48.796;11.978;2022-11-20T08:38:54;96261.97;;;8.36;38.49
25350;BME280;13302;48.796;11.978;2022-11-20T08:41:42;96265.16;;;8.38;38.37
25350;BME280;13302;48.796;11.978;2022-11-20T08:44:29;96256.19;;;8.41;38.39
25350;BME280;13302;48.796;11.978;2022-11-20T08:47:16;96260.63;;;8.45;38.30
25350;BME280;13302;48.796;11.978;2022-11-20T08:50:03;96263.06;;;8.47;38.23
25350;BME280;13302;48.796;11.978;2022-11-20T08:52:50;96262.38;;;8.50;38.12
25350;BME280;13302;48.796;11.978;2022-11-20T08:55:37;96262.03;;;8.51;38.44
25350;BME280;13302;48.796;11.978;2022-11-20T08:58:26;96262.13;;;8.55;38.39
25350;BME280;13302;48.796;11.978;2022-11-20T09:01:13;96260.19;;;8.55;38.22
25350;BME280;13302;48.796;11.978;2022-11-20T09:04:01;96263.81;;;8.59;38.01
25350;BME280;13302;48.796;11.978;2022-11-20T09:06:48;96261.88;;;8.60;38.07
25350;BME280;13302;48.796;11.978;2022-11-20T09:09:38;96256.78;;;8.62;37.96
25350;BME280;13302;48.796;11.978;2022-11-20T09:12:25;96262.69;;;8.60;37.77
25350;BME280;13302;48.796;11.978;2022-11-20T09:15:12;96263.47;;;8.61;37.89
25350;BME280;13302;48.796;11.978;2022-11-20T09:18:02;96257.50;;;8.59;38.10
25350;BME280;13302;48.796;11.978;2022-11-20T09:20:51;96250.84;;;8.60;37.86
25350;BME280;13302;48.796;11.978;2022-11-20T09:23:39;96254.41;;;8.60;37.83
25350;BME280;13302;48.796;11.978;2022-11-20T09:26:26;96262.69;;;8.60;37.86
25350;BME280;13302;48.796;11.978;2022-11-20T09:29:13;96261.88;;;8.60;38.14
25350;BME280;13302;48.796;11.978;2022-11-20T09:32:00;96264.63;;;8.60;37.96
25350;BME280;13302;48.796;11.978;2022-11-20T09:34:48;96262.31;;;8.62;38.09
25350;BME280;13302;48.796;11.978;2022-11-20T09:37:35;96262.41;;;8.65;37.96
25350;BME280;13302;48.796;11.978;2022-11-20T09:40:24;96250.59;;;8.65;38.07
25350;BME280;13302;48.796;11.978;2022-11-20T09:46:40;96254.13;;;8.65;38.07
25350;BME280;13302;48.796;11.978;2022-11-20T09:56:23;96248.63;;;8.65;38.32
25350;BME280;13302;48.796;11.978;2022-11-20T09:59:41;96256.88;;;8.65;38.24
25350;BME280;13302;48.796;11.978;2022-11-20T10:05:44;96248.28;;;8.67;38.18
25350;BME280;13302;48.796;11.978;2022-11-20T10:08:41;96239.66;;;8.68;38.19
25350;BME280;13302;48.796;11.978;2022-11-20T10:11:56;96247.56;;;8.70;38.06
25350;BME280;13302;48.796;11.978;2022-11-20T10:15:10;96248.03;;;8.72;38.24
25350;BME280;13302;48.796;11.978;2022-11-20T10:18:11;96250.88;;;8.75;38.28
25350;BME280;13302;48.796;11.978;2022-11-20T10:24:29;96242.34;;;8.81;38.21
25350;BME280;13302;48.796;11.978;2022-11-20T10:30:23;96237.63;;;8.81;38.33
25350;BME280;13302;48.796;11.978;2022-11-20T10:33:19;96243.94;;;8.82;37.98
25350;BME280;13302;48.796;11.978;2022-11-20T10:36:21;96247.41;;;8.79;38.07
25350;BME280;13302;48.796;11.978;2022-11-20T10:39:22;96240.75;;;8.80;38.04
25350;BME280;13302;48.796;11.978;2022-11-20T10:42:17;96237.53;;;8.77;38.33
25350;BME280;13302;48.796;11.978;2022-11-20T10:48:27;96239.03;;;8.75;38.01
25350;BME280;13302;48.796;11.978;2022-11-20T10:51:27;96240.09;;;8.70;38.35
25350;BME280;13302;48.796;11.978;2022-11-20T10:54:20;96232.28;;;8.72;38.28
25350;BME280;13302;48.796;11.978;2022-11-20T11:00:19;96246.88;;;8.73;38.43
25350;BME280;13302;48.796;11.978;2022-11-20T11:03:27;96231.59;;;8.75;38.38
25350;BME280;13302;48.796;11.978;2022-11-20T11:06:37;96232.47;;;8.80;38.33
25350;BME280;13302;48.796;11.978;2022-11-20T11:09:34;96227.38;;;8.82;38.47
25350;BME280;13302;48.796;11.978;2022-11-20T11:12:27;96224.28;;;8.83;38.32
25350;BME280;13302;48.796;11.978;2022-11-20T11:15:29;96221.53;;;8.83;38.48
25350;BME280;13302;48.796;11.978;2022-11-20T11:18:31;96231.41;;;8.84;38.25
25350;BME280;13302;48.796;11.978;2022-11-20T11:21:25;96212.13;;;8.84;38.54
25350;BME280;13302;48.796;11.978;2022-11-20T11:24:24;96216.81;;;8.84;38.35
25350;BME280;13302;48.796;11.978;2022-11-20T11:27:29;96222.78;;;8.86;38.21
25350;BME280;13302;48.796;11.978;2022-11-20T11:30:19;96222.00;;;8.85;38.57
25350;BME280;13302;48.796;11.978;2022-11-20T11:33:10;96210.16;;;8.85;38.42
25350;BME280;13302;48.796;11.978;2022-11-20T11:36:00;96212.19;;;8.88;38.29
25350;BME280;13302;48.796;11.978;2022-11-20T11:38:51;96222.88;;;8.89;38.49
25350;BME280;13302;48.796;11.978;2022-11-20T11:41:40;96214.63;;;8.89;38.40
25350;BME280;13302;48.796;11.978;2022-11-20T11:44:30;96209.44;;;8.88;38.34
25350;BME280;13302;48.796;11.978;2022-11-20T11:50:30;96209.19;;;8.93;38.45
25350;BME280;13302;48.796;11.978;2022-11-20T11:53:20;96200.91;;;8.93;38.74
25350;BME280;13302;48.796;11.978;2022-11-20T11:56:09;96203.28;;;8.94;38.46
25350;BME280;13302;48.796;11.978;2022-11-20T11:59:00;96200.66;;;8.98;38.56
25350;BME280;13302;48.796;11.978;2022-11-20T12:01:55;96199.84;;;8.97;38.58
25350;BME280;13302;48.796;11.978;2022-11-20T12:04:46;96196.81;;;9.02;38.54
25350;BME280;13302;48.796;11.978;2022-11-20T12:07:45;96202.69;;;9.01;38.49
25350;BME280;13302;48.796;11.978;2022-11-20T12:10:56;96195.56;;;9.00;38.69
25350;BME280;13302;48.796;11.978;2022-11-20T12:13:55;96192.09;;;9.03;38.58
25350;BME280;13302;48.796;11.978;2022-11-20T12:16:45;96196.91;;;9.06;38.67
25350;BME280;13302;48.796;11.978;2022-11-20T12:19:34;96197.69;;;9.06;38.65
25350;BME280;13302;48.796;11.978;2022-11-20T12:25:27;96197.34;;;9.08;38.66
25350;BME280;13302;48.796;11.978;2022-11-20T12:28:30;96192.97;;;9.07;38.60
25350;BME280;13302;48.796;11.978;2022-11-20T12:31:40;96201.25;;;9.07;38.79
25350;BME280;13302;48.796;11.978;2022-11-20T12:34:47;96208.38;;;9.08;38.77
25350;BME280;13302;48.796;11.978;2022-11-20T12:37:49;96205.19;;;9.06;38.66
25350;BME280;13302;48.796;11.978;2022-11-20T13:00:06;96181.69;;;9.12;38.56
25350;BME280;13302;48.796;11.978;2022-11-20T13:03:32;96180.88;;;9.11;38.70
25350;BME280;13302;48.796;11.978;2022-11-20T13:06:16;96176.16;;;9.12;38.67
25350;BME280;13302;48.796;11.978;2022-11-20T13:09:09;96178.56;;;9.13;38.90
25350;BME280;13302;48.796;11.978;2022-11-20T13:12:05;96172.00;;;9.18;38.95
25350;BME280;13302;48.796;11.978;2022-11-20T13:15:19;96167.69;;;9.20;38.84
25350;BME280;13302;48.796;11.978;2022-11-20T13:18:12;96172.50;;;9.23;38.77
25350;BME280;13302;48.796;11.978;2022-11-20T13:20:59;96181.31;;;9.29;38.71
25350;BME280;13302;48.796;11.978;2022-11-20T13:23:46;96166.34;;;9.30;38.59
25350;BME280;13302;48.796;11.978;2022-11-20T13:26:33;96169.53;;;9.32;38.91
25350;BME280;13302;48.796;11.978;2022-11-20T13:29:21;96165.28;;;9.35;38.66
25350;BME280;13302;48.796;11.978;2022-11-20T13:32:16;96162.16;;;9.36;38.55
25350;BME280;13302;48.796;11.978;2022-11-20T13:35:04;96162.59;;;9.38;38.90
25350;BME280;13302;48.796;11.978;2022-11-20T13:38:03;96162.22;;;9.40;38.48
25350;BME280;13302;48.796;11.978;2022-11-20T13:40:58;96153.13;;;9.39;38.81
25350;BME280;13302;48.796;11.978;2022-11-20T13:43:47;96148.50;;;9.43;38.55
25350;BME280;13302;48.796;11.978;2022-11-20T13:46:37;96147.34;;;9.44;38.64
25350;BME280;13302;48.796;11.978;2022-11-20T13:53:22;96136.31;;;9.44;38.55
25350;BME280;13302;48.796;11.978;2022-11-20T13:56:00;96154.47;;;9.45;38.75
25350;BME280;13302;48.796;11.978;2022-11-20T14:02:20;96150.97;;;9.48;38.79
25350;BME280;13302;48.796;11.978;2022-11-20T14:05:19;96150.63;;;9.50;38.90
25350;BME280;13302;48.796;11.978;2022-11-20T14:08:14;96149.09;;;9.52;38.61
25350;BME280;13302;48.796;11.978;2022-11-20T14:11:15;96156.22;;;9.53;38.74
25350;BME280;13302;48.796;11.978;2022-11-20T14:14:18;96159.72;;;9.50;38.72
25350;BME280;13302;48.796;11.978;2022-11-20T14:17:15;96166.84;;;9.51;38.72
25350;BME280;13302;48.796;11.978;2022-11-20T14:20:05;96163.28;;;9.51;38.44
25350;BME280;13302;48.796;11.978;2022-11-20T14:22:54;96169.16;;;9.49;38.52
25350;BME280;13302;48.796;11.978;2022-11-20T14:25:42;96174.66;;;9.49;38.47
25350;BME280;13302;48.796;11.978;2022-11-20T14:28:30;96166.72;;;9.48;38.56
25350;BME280;13302;48.796;11.978;2022-11-20T14:31:23;96170.22;;;9.45;38.45
25350;BME280;13302;48.796;11.978;2022-11-20T14:34:17;96167.03;;;9.43;38.71
25350;BME280;13302;48.796;11.978;2022-11-20T14:37:09;96163.91;;;9.44;38.65
25350;BME280;13302;48.796;11.978;2022-11-20T14:40:14;96158.84;;;9.46;38.45
25350;BME280;13302;48.796;11.978;2022-11-20T14:43:28;96165.94;;;9.47;38.61
25350;BME280;13302;48.796;11.978;2022-11-20T14:46:15;96167.91;;;9.47;38.33
25350;BME280;13302;48.796;11.978;2022-11-20T14:49:02;96156.06;;;9.46;38.52
25350;BME280;13302;48.796;11.978;2022-11-20T14:52:02;96156.78;;;9.43;38.40
25350;BME280;13302;48.796;11.978;2022-11-20T14:54:55;96150.09;;;9.44;38.55
25350;BME280;13302;48.796;11.978;2022-11-20T14:57:42;96150.56;;;9.46;38.40
25350;BME280;13302;48.796;11.978;2022-11-20T15:00:30;96152.50;;;9.46;38.51
25350;BME280;13302;48.796;11.978;2022-11-20T15:03:18;96163.97;;;9.48;38.17
25350;BME280;13302;48.796;11.978;2022-11-20T15:06:07;96156.06;;;9.46;38.48
25350;BME280;13302;48.796;11.978;2022-11-20T15:08:54;96152.88;;;9.44;38.16
25350;BME280;13302;48.796;11.978;2022-11-20T15:11:53;96154.00;;;9.43;38.30
25350;BME280;13302;48.796;11.978;2022-11-20T15:14:41;96168.63;;;9.44;38.39
25350;BME280;13302;48.796;11.978;2022-11-20T15:17:28;96161.53;;;9.43;38.22
25350;BME280;13302;48.796;11.978;2022-11-20T15:20:17;96151.63;;;9.42;38.23
25350;BME280;13302;48.796;11.978;2022-11-20T15:23:13;96153.59;;;9.41;38.15
25350;BME280;13302;48.796;11.978;2022-11-20T15:26:00;96161.06;;;9.41;38.20
25350;BME280;13302;48.796;11.978;2022-11-20T15:28:48;96152.44;;;9.42;38.43
25350;BME280;13302;48.796;11.978;2022-11-20T15:31:37;96160.72;;;9.42;38.07
25350;BME280;13302;48.796;11.978;2022-11-20T15:34:28;96162.28;;;9.43;38.25
25350;BME280;13302;48.796;11.978;2022-11-20T15:37:15;96158.38;;;9.44;38.18
25350;BME280;13302;48.796;11.978;2022-11-20T15:40:02;96148.50;;;9.43;37.96
25350;BME280;13302;48.796;11.978;2022-11-20T15:42:49;96149.69;;;9.42;37.87
25350;BME280;13302;48.796;11.978;2022-11-20T15:46:03;96153.59;;;9.41;37.71
25350;BME280;13302;48.796;11.978;2022-11-20T15:48:54;96157.09;;;9.38;37.75
25350;BME280;13302;48.796;11.978;2022-11-20T15:51:44;96168.53;;;9.40;37.85
25350;BME280;13302;48.796;11.978;2022-11-20T15:54:33;96163.03;;;9.40;38.09
25350;BME280;13302;48.796;11.978;2022-11-20T15:57:20;96165.44;;;9.42;37.97
25350;BME280;13302;48.796;11.978;2022-11-20T16:00:08;96164.69;;;9.45;37.85
25350;BME280;13302;48.796;11.978;2022-11-20T16:02:56;96164.34;;;9.46;37.95
25350;BME280;13302;48.796;11.978;2022-11-20T16:05:44;96161.66;;;9.50;37.69